sensor_id;sensor_type;location;lat;lon;timestamp;temperature;humidity
17687;DHT22;8962;52.538;13.266;2023-02-28T00:00:37;1.80;99.90
17687;DHT22;8962;52.538;13.266;2023-02-28T00:03:05;1.80;99.90
17687;DHT22;8962;52.538;13.266;2023-02-28T00:05:33;1.80;99.90
17687;DHT22;8962;52.538;13.266;2023-02-28T00:08:01;1.80;99.90
17687;DHT22;8962;52.538;13.266;2023-02-28T00:10:30;1.80;99.90
17687;DHT22;8962;52.538;13.266;2023-02-28T00:13:00;1.90;99.90
17687;DHT22;8962;52.538;13.266;2023-02-28T00:15:28;1.90;99.90
17687;DHT22;8962;52.538;13.266;2023-02-28T00:18:00;1.80;99.90
17687;DHT22;8962;52.538;13.266;2023-02-28T00:20:31;1.80;99.90
17687;DHT22;8962;52.538;13.266;2023-02-28T00:23:00;1.80;99.90
17687;DHT22;8962;52.538;13.266;2023-02-28T00:25:27;1.80;99.90
17687;DHT22;8962;52.538;13.266;2023-02-28T00:27:55;1.80;99.90
17687;DHT22;8962;52.538;13.266;2023-02-28T00:30:23;1.80;99.90
17687;DHT22;8962;52.538;13.266;2023-02-28T00:32:50;1.70;99.90
17687;DHT22;8962;52.538;13.266;2023-02-28T00:35:18;1.70;99.90
17687;DHT22;8962;52.538;13.266;2023-02-28T00:37:45;1.70;99.90
17687;DHT22;8962;52.538;13.266;2023-02-28T00:40:16;1.70;99.90
17687;DHT22;8962;52.538;13.266;2023-02-28T00:42:43;1.70;99.90
17687;DHT22;8962;52.538;13.266;2023-02-28T00:45:10;1.70;99.90
17687;DHT22;8962;52.538;13.266;2023-02-28T00:47:38;1.70;99.90
17687;DHT22;8962;52.538;13.266;2023-02-28T00:50:07;1.70;99.90
17687;DHT22;8962;52.538;13.266;2023-02-28T00:52:36;1.70;99.90
17687;DHT22;8962;52.538;13.266;2023-02-28T00:55:04;1.70;99.90
17687;DHT22;8962;52.538;13.266;2023-02-28T00:57:34;1.60;99.90
17687;DHT22;8962;52.538;13.266;2023-02-28T01:00:01;1.60;99.90
17687;DHT22;8962;52.538;13.266;2023-02-28T01:02:29;1.60;99.90
17687;DHT22;8962;52.538;13.266;2023-02-28T01:04:57;1.60;99.90
17687;DHT22;8962;52.538;13.266;2023-02-28T01:07:25;1.60;99.90
17687;DHT22;8962;52.538;13.266;2023-02-28T01:09:53;1.60;99.90
17687;DHT22;8962;52.538;13.266;2023-02-28T01:12:20;1.60;99.90
17687;DHT22;8962;52.538;13.266;2023-02-28T01:14:49;1.60;99.90
17687;DHT22;8962;52.538;13.266;2023-02-28T01:17:16;1.70;99.90
17687;DHT22;8962;52.538;13.266;2023-02-28T01:19:43;1.60;99.90
17687;DHT22;8962;52.538;13.266;2023-02-28T01:22:10;1.60;99.90
17687;DHT22;8962;52.538;13.266;2023-02-28T01:24:37;1.60;99.90
17687;DHT22;8962;52.538;13.266;2023-02-28T01:27:04;1.60;99.90
17687;DHT22;8962;52.538;13.266;2023-02-28T01:29:32;1.60;99.90
17687;DHT22;8962;52.538;13.266;2023-02-28T01:32:02;1.60;99.90
17687;DHT22;8962;52.538;13.266;2023-02-28T01:34:31;1.50;99.90
17687;DHT22;8962;52.538;13.266;2023-02-28T01:36:59;1.50;99.90
17687;DHT22;8962;52.538;13.266;2023-02-28T01:39:27;1.50;99.90
17687;DHT22;8962;52.538;13.266;2023-02-28T01:41:55;1.40;99.90
17687;DHT22;8962;52.538;13.266;2023-02-28T01:45:03;1.40;99.90
17687;DHT22;8962;52.538;13.266;2023-02-28T01:47:34;1.40;99.90
17687;DHT22;8962;52.538;13.266;2023-02-28T01:50:06;1.40;99.90
17687;DHT22;8962;52.538;13.266;2023-02-28T01:52:34;1.40;99.90
17687;DHT22;8962;52.538;13.266;2023-02-28T01:55:05;1.40;99.90
17687;DHT22;8962;52.538;13.266;2023-02-28T01:57:36;1.30;99.90
17687;DHT22;8962;52.538;13.266;2023-02-28T02:00:08;1.30;99.90
17687;DHT22;8962;52.538;13.266;2023-02-28T02:02:42;1.30;99.90
17687;DHT22;8962;52.538;13.266;2023-02-28T02:05:12;1.30;99.90
17687;DHT22;8962;52.538;13.266;2023-02-28T02:07:43;1.30;99.90
17687;DHT22;8962;52.538;13.266;2023-02-28T02:10:15;1.30;99.90
17687;DHT22;8962;52.538;13.266;2023-02-28T02:13:08;1.20;99.90
17687;DHT22;8962;52.538;13.266;2023-02-28T02:15:42;1.30;99.90
17687;DHT22;8962;52.538;13.266;2023-02-28T02:18:20;1.20;99.90
17687;DHT22;8962;52.538;13.266;2023-02-28T02:27:05;1.20;99.90
17687;DHT22;8962;52.538;13.266;2023-02-28T02:30:21;1.10;99.90
17687;DHT22;8962;52.538;13.266;2023-02-28T02:36:06;1.00;99.90
17687;DHT22;8962;52.538;13.266;2023-02-28T02:38:37;0.90;99.90
17687;DHT22;8962;52.538;13.266;2023-02-28T02:41:10;0.90;99.90
17687;DHT22;8962;52.538;13.266;2023-02-28T02:43:46;0.80;99.90
17687;DHT22;8962;52.538;13.266;2023-02-28T02:46:21;0.70;99.90
17687;DHT22;8962;52.538;13.266;2023-02-28T02:48:51;0.70;99.90
17687;DHT22;8962;52.538;13.266;2023-02-28T02:51:23;0.60;99.90
17687;DHT22;8962;52.538;13.266;2023-02-28T02:53:54;0.50;99.90
17687;DHT22;8962;52.538;13.266;2023-02-28T02:56:27;0.50;99.90
17687;DHT22;8962;52.538;13.266;2023-02-28T02:59:01;0.40;99.90
17687;DHT22;8962;52.538;13.266;2023-02-28T03:01:31;0.30;99.90
17687;DHT22;8962;52.538;13.266;2023-02-28T03:04:01;0.40;99.90
17687;DHT22;8962;52.538;13.266;2023-02-28T03:06:33;0.40;99.90
17687;DHT22;8962;52.538;13.266;2023-02-28T03:09:01;0.40;99.90
17687;DHT22;8962;52.538;13.266;2023-02-28T03:11:31;0.30;99.90
17687;DHT22;8962;52.538;13.266;2023-02-28T03:14:25;0.20;99.90
17687;DHT22;8962;52.538;13.266;2023-02-28T03:17:08;0.20;99.90
17687;DHT22;8962;52.538;13.266;2023-02-28T03:19:55;0.00;99.90
17687;DHT22;8962;52.538;13.266;2023-02-28T03:22:47;0.00;99.90
17687;DHT22;8962;52.538;13.266;2023-02-28T03:25:22;0.10;99.90
17687;DHT22;8962;52.538;13.266;2023-02-28T03:27:59;0.00;99.90
17687;DHT22;8962;52.538;13.266;2023-02-28T03:30:35;-0.10;99.90
17687;DHT22;8962;52.538;13.266;2023-02-28T03:33:07;-0.10;99.90
17687;DHT22;8962;52.538;13.266;2023-02-28T03:35:38;-0.20;99.90
17687;DHT22;8962;52.538;13.266;2023-02-28T03:38:13;-0.20;99.90
17687;DHT22;8962;52.538;13.266;2023-02-28T03:40:44;-0.30;99.90
17687;DHT22;8962;52.538;13.266;2023-02-28T03:43:21;-0.30;99.90
17687;DHT22;8962;52.538;13.266;2023-02-28T03:45:52;-0.30;99.90
17687;DHT22;8962;52.538;13.266;2023-02-28T03:48:23;-0.40;99.90
17687;DHT22;8962;52.538;13.266;2023-02-28T03:50:55;-0.40;99.90
17687;DHT22;8962;52.538;13.266;2023-02-28T03:53:29;-0.50;99.90
17687;DHT22;8962;52.538;13.266;2023-02-28T03:55:59;-0.40;99.90
17687;DHT22;8962;52.538;13.266;2023-02-28T03:58:33;-0.50;99.90
17687;DHT22;8962;52.538;13.266;2023-02-28T04:01:06;-0.40;99.90
17687;DHT22;8962;52.538;13.266;2023-02-28T04:03:35;-0.40;99.90
17687;DHT22;8962;52.538;13.266;2023-02-28T04:06:04;-0.50;99.90
17687;DHT22;8962;52.538;13.266;2023-02-28T04:08:34;-0.50;99.90
17687;DHT22;8962;52.538;13.266;2023-02-28T04:11:06;-0.40;99.90
17687;DHT22;8962;52.538;13.266;2023-02-28T04:13:36;-0.30;99.90
17687;DHT22;8962;52.538;13.266;2023-02-28T04:16:07;-0.20;99.90
17687;DHT22;8962;52.538;13.266;2023-02-28T04:18:38;-0.30;99.90
17687;DHT22;8962;52.538;13.266;2023-02-28T04:21:09;-0.30;99.90
17687;DHT22;8962;52.538;13.266;2023-02-28T04:23:39;-0.40;99.90
17687;DHT22;8962;52.538;13.266;2023-02-28T04:26:08;-0.30;99.90
17687;DHT22;8962;52.538;13.266;2023-02-28T04:28:37;-0.20;99.90
17687;DHT22;8962;52.538;13.266;2023-02-28T04:31:05;-0.40;99.90
17687;DHT22;8962;52.538;13.266;2023-02-28T04:33:33;-0.50;99.90
17687;DHT22;8962;52.538;13.266;2023-02-28T04:36:03;-0.50;99.90
17687;DHT22;8962;52.538;13.266;2023-02-28T04:38:34;-0.60;99.90
17687;DHT22;8962;52.538;13.266;2023-02-28T04:41:03;-0.50;99.90
17687;DHT22;8962;52.538;13.266;2023-02-28T04:43:34;-0.60;99.90
17687;DHT22;8962;52.538;13.266;2023-02-28T04:46:04;-0.70;99.90
17687;DHT22;8962;52.538;13.266;2023-02-28T04:48:33;-0.70;99.90
17687;DHT22;8962;52.538;13.266;2023-02-28T04:51:03;-0.80;99.90
17687;DHT22;8962;52.538;13.266;2023-02-28T04:53:31;-0.80;99.90
17687;DHT22;8962;52.538;13.266;2023-02-28T04:56:04;-0.80;99.90
17687;DHT22;8962;52.538;13.266;2023-02-28T04:58:32;-0.90;99.90
17687;DHT22;8962;52.538;13.266;2023-02-28T05:01:05;-0.90;99.90
17687;DHT22;8962;52.538;13.266;2023-02-28T05:03:38;-0.90;99.90
17687;DHT22;8962;52.538;13.266;2023-02-28T05:06:06;-1.00;99.90
17687;DHT22;8962;52.538;13.266;2023-02-28T05:08:39;-0.90;99.90
17687;DHT22;8962;52.538;13.266;2023-02-28T05:11:19;-0.90;99.90
17687;DHT22;8962;52.538;13.266;2023-02-28T05:13:50;-1.00;99.90
17687;DHT22;8962;52.538;13.266;2023-02-28T05:16:19;-0.90;99.90
17687;DHT22;8962;52.538;13.266;2023-02-28T05:18:46;-1.00;99.90
17687;DHT22;8962;52.538;13.266;2023-02-28T05:21:25;-0.90;99.90
17687;DHT22;8962;52.538;13.266;2023-02-28T05:23:53;-0.90;99.90
17687;DHT22;8962;52.538;13.266;2023-02-28T05:26:24;-0.90;99.90
17687;DHT22;8962;52.538;13.266;2023-02-28T05:28:52;-0.90;99.90
17687;DHT22;8962;52.538;13.266;2023-02-28T05:31:19;-1.00;99.90
17687;DHT22;8962;52.538;13.266;2023-02-28T05:33:47;-1.00;99.90
17687;DHT22;8962;52.538;13.266;2023-02-28T05:36:14;-1.00;99.90
17687;DHT22;8962;52.538;13.266;2023-02-28T05:38:45;-1.00;99.90
17687;DHT22;8962;52.538;13.266;2023-02-28T05:41:14;-1.00;99.90
17687;DHT22;8962;52.538;13.266;2023-02-28T05:43:42;-1.10;99.90
17687;DHT22;8962;52.538;13.266;2023-02-28T05:46:12;-1.20;99.90
17687;DHT22;8962;52.538;13.266;2023-02-28T05:48:40;-1.20;99.90
17687;DHT22;8962;52.538;13.266;2023-02-28T05:51:08;-1.20;99.90
17687;DHT22;8962;52.538;13.266;2023-02-28T05:53:36;-1.20;99.90
17687;DHT22;8962;52.538;13.266;2023-02-28T05:56:05;-1.20;99.90
17687;DHT22;8962;52.538;13.266;2023-02-28T05:58:32;-1.10;99.90
17687;DHT22;8962;52.538;13.266;2023-02-28T06:01:20;-1.10;99.90
17687;DHT22;8962;52.538;13.266;2023-02-28T06:03:48;-1.10;99.90
17687;DHT22;8962;52.538;13.266;2023-02-28T06:06:16;-1.10;99.90
17687;DHT22;8962;52.538;13.266;2023-02-28T06:08:44;-1.00;99.90
17687;DHT22;8962;52.538;13.266;2023-02-28T06:11:12;-1.10;99.90
17687;DHT22;8962;52.538;13.266;2023-02-28T06:13:39;-1.10;99.90
17687;DHT22;8962;52.538;13.266;2023-02-28T06:16:10;-1.10;99.90
17687;DHT22;8962;52.538;13.266;2023-02-28T06:18:37;-1.10;99.90
17687;DHT22;8962;52.538;13.266;2023-02-28T06:21:05;-1.20;99.90
17687;DHT22;8962;52.538;13.266;2023-02-28T06:23:32;-1.10;99.90
17687;DHT22;8962;52.538;13.266;2023-02-28T06:25:59;-1.10;99.90
17687;DHT22;8962;52.538;13.266;2023-02-28T06:28:26;-1.10;99.90
17687;DHT22;8962;52.538;13.266;2023-02-28T06:30:55;-1.10;99.90
17687;DHT22;8962;52.538;13.266;2023-02-28T06:33:25;-1.10;99.90
17687;DHT22;8962;52.538;13.266;2023-02-28T06:35:52;-1.10;99.90
17687;DHT22;8962;52.538;13.266;2023-02-28T06:38:20;-1.10;99.90
17687;DHT22;8962;52.538;13.266;2023-02-28T06:40:54;-1.00;99.90
17687;DHT22;8962;52.538;13.266;2023-02-28T06:43:37;-1.00;99.90
17687;DHT22;8962;52.538;13.266;2023-02-28T06:46:07;-1.00;99.90
17687;DHT22;8962;52.538;13.266;2023-02-28T06:48:35;-0.90;99.90
17687;DHT22;8962;52.538;13.266;2023-02-28T06:51:04;-0.90;99.90
17687;DHT22;8962;52.538;13.266;2023-02-28T06:53:32;-0.90;99.90
17687;DHT22;8962;52.538;13.266;2023-02-28T06:56:02;-0.90;99.90
17687;DHT22;8962;52.538;13.266;2023-02-28T06:58:31;-0.90;99.90
17687;DHT22;8962;52.538;13.266;2023-02-28T07:00:58;-0.80;99.90
17687;DHT22;8962;52.538;13.266;2023-02-28T07:03:35;-0.80;99.90
17687;DHT22;8962;52.538;13.266;2023-02-28T07:06:05;-0.70;99.90
17687;DHT22;8962;52.538;13.266;2023-02-28T07:08:33;-0.60;99.90
17687;DHT22;8962;52.538;13.266;2023-02-28T07:11:02;-0.50;99.90
17687;DHT22;8962;52.538;13.266;2023-02-28T07:13:29;-0.50;99.90
17687;DHT22;8962;52.538;13.266;2023-02-28T07:15:59;-0.40;99.90
17687;DHT22;8962;52.538;13.266;2023-02-28T07:18:27;-0.40;99.90
17687;DHT22;8962;52.538;13.266;2023-02-28T07:20:55;-0.30;99.90
17687;DHT22;8962;52.538;13.266;2023-02-28T07:23:23;-0.20;99.90
17687;DHT22;8962;52.538;13.266;2023-02-28T07:25:52;-0.20;99.90
17687;DHT22;8962;52.538;13.266;2023-02-28T07:28:20;0.30;99.90
17687;DHT22;8962;52.538;13.266;2023-02-28T07:30:47;0.20;99.90
17687;DHT22;8962;52.538;13.266;2023-02-28T07:33:15;0.20;99.90
17687;DHT22;8962;52.538;13.266;2023-02-28T07:35:42;0.40;99.90
17687;DHT22;8962;52.538;13.266;2023-02-28T07:38:11;0.60;99.90
17687;DHT22;8962;52.538;13.266;2023-02-28T07:40:39;0.80;99.90
17687;DHT22;8962;52.538;13.266;2023-02-28T07:43:07;0.70;99.90
17687;DHT22;8962;52.538;13.266;2023-02-28T07:45:34;0.70;99.90
17687;DHT22;8962;52.538;13.266;2023-02-28T07:48:01;1.00;99.90
17687;DHT22;8962;52.538;13.266;2023-02-28T07:50:29;1.20;99.90
17687;DHT22;8962;52.538;13.266;2023-02-28T07:52:57;1.50;99.90
17687;DHT22;8962;52.538;13.266;2023-02-28T07:55:26;1.50;99.90
17687;DHT22;8962;52.538;13.266;2023-02-28T07:57:54;1.50;99.90
17687;DHT22;8962;52.538;13.266;2023-02-28T08:00:23;1.80;99.90
17687;DHT22;8962;52.538;13.266;2023-02-28T08:02:50;1.90;99.90
17687;DHT22;8962;52.538;13.266;2023-02-28T08:05:18;2.10;99.90
17687;DHT22;8962;52.538;13.266;2023-02-28T08:07:45;2.00;99.90
17687;DHT22;8962;52.538;13.266;2023-02-28T08:10:13;2.10;99.90
17687;DHT22;8962;52.538;13.266;2023-02-28T08:12:43;2.20;99.90
17687;DHT22;8962;52.538;13.266;2023-02-28T08:15:10;2.20;99.90
17687;DHT22;8962;52.538;13.266;2023-02-28T08:17:38;2.40;99.90
17687;DHT22;8962;52.538;13.266;2023-02-28T08:20:07;2.40;99.90
17687;DHT22;8962;52.538;13.266;2023-02-28T08:22:36;2.40;99.90
17687;DHT22;8962;52.538;13.266;2023-02-28T08:25:05;2.50;99.90
17687;DHT22;8962;52.538;13.266;2023-02-28T08:27:33;2.80;99.90
17687;DHT22;8962;52.538;13.266;2023-02-28T08:30:03;3.00;99.90
17687;DHT22;8962;52.538;13.266;2023-02-28T08:32:33;3.10;99.90
17687;DHT22;8962;52.538;13.266;2023-02-28T08:35:02;3.30;99.90
17687;DHT22;8962;52.538;13.266;2023-02-28T08:37:31;3.40;99.90
17687;DHT22;8962;52.538;13.266;2023-02-28T08:39:59;3.60;99.90
17687;DHT22;8962;52.538;13.266;2023-02-28T08:42:26;3.70;99.90
17687;DHT22;8962;52.538;13.266;2023-02-28T08:44:56;3.70;99.90
17687;DHT22;8962;52.538;13.266;2023-02-28T08:47:27;3.80;99.90
17687;DHT22;8962;52.538;13.266;2023-02-28T08:49:57;4.00;99.90
17687;DHT22;8962;52.538;13.266;2023-02-28T08:52:25;4.30;99.90
17687;DHT22;8962;52.538;13.266;2023-02-28T08:54:52;4.40;99.90
17687;DHT22;8962;52.538;13.266;2023-02-28T08:57:21;4.50;99.90
17687;DHT22;8962;52.538;13.266;2023-02-28T08:59:48;4.60;99.90
17687;DHT22;8962;52.538;13.266;2023-02-28T09:02:16;4.60;99.90
17687;DHT22;8962;52.538;13.266;2023-02-28T09:04:45;4.70;99.90
17687;DHT22;8962;52.538;13.266;2023-02-28T09:07:12;5.00;99.90
17687;DHT22;8962;52.538;13.266;2023-02-28T09:09:39;5.10;99.90
17687;DHT22;8962;52.538;13.266;2023-02-28T09:12:20;5.30;99.90
17687;DHT22;8962;52.538;13.266;2023-02-28T09:14:47;5.10;99.90
17687;DHT22;8962;52.538;13.266;2023-02-28T09:17:14;5.10;99.90
17687;DHT22;8962;52.538;13.266;2023-02-28T09:19:51;5.10;99.90
17687;DHT22;8962;52.538;13.266;2023-02-28T09:22:18;5.10;99.90
17687;DHT22;8962;52.538;13.266;2023-02-28T09:24:46;5.20;99.90
17687;DHT22;8962;52.538;13.266;2023-02-28T09:27:14;5.30;99.90
17687;DHT22;8962;52.538;13.266;2023-02-28T09:29:41;5.60;99.90
17687;DHT22;8962;52.538;13.266;2023-02-28T09:32:08;5.50;99.90
17687;DHT22;8962;52.538;13.266;2023-02-28T09:34:35;5.50;99.90
17687;DHT22;8962;52.538;13.266;2023-02-28T09:37:04;5.50;99.90
17687;DHT22;8962;52.538;13.266;2023-02-28T09:39:32;5.60;99.90
17687;DHT22;8962;52.538;13.266;2023-02-28T09:42:00;5.70;99.90
17687;DHT22;8962;52.538;13.266;2023-02-28T09:44:31;5.60;99.90
17687;DHT22;8962;52.538;13.266;2023-02-28T09:47:05;5.70;99.90
17687;DHT22;8962;52.538;13.266;2023-02-28T09:49:40;5.90;99.90
17687;DHT22;8962;52.538;13.266;2023-02-28T09:52:14;5.80;99.90
17687;DHT22;8962;52.538;13.266;2023-02-28T09:54:42;5.80;99.90
17687;DHT22;8962;52.538;13.266;2023-02-28T09:57:19;5.90;99.90
17687;DHT22;8962;52.538;13.266;2023-02-28T09:59:56;6.00;99.90
17687;DHT22;8962;52.538;13.266;2023-02-28T10:03:04;5.90;99.90
17687;DHT22;8962;52.538;13.266;2023-02-28T10:05:36;5.70;99.90
17687;DHT22;8962;52.538;13.266;2023-02-28T10:08:13;5.80;99.90
17687;DHT22;8962;52.538;13.266;2023-02-28T10:10:49;5.70;99.90
17687;DHT22;8962;52.538;13.266;2023-02-28T10:13:24;5.70;99.90
17687;DHT22;8962;52.538;13.266;2023-02-28T10:15:58;5.70;99.90
17687;DHT22;8962;52.538;13.266;2023-02-28T10:18:38;5.70;99.90
17687;DHT22;8962;52.538;13.266;2023-02-28T10:21:18;5.90;99.90
17687;DHT22;8962;52.538;13.266;2023-02-28T10:23:48;5.90;99.90
17687;DHT22;8962;52.538;13.266;2023-02-28T10:26:19;5.90;99.90
17687;DHT22;8962;52.538;13.266;2023-02-28T10:28:46;5.90;99.90
17687;DHT22;8962;52.538;13.266;2023-02-28T10:31:17;5.80;99.90
17687;DHT22;8962;52.538;13.266;2023-02-28T10:33:45;5.90;99.90
17687;DHT22;8962;52.538;13.266;2023-02-28T10:36:17;5.70;99.90
17687;DHT22;8962;52.538;13.266;2023-02-28T10:38:48;5.80;99.90
17687;DHT22;8962;52.538;13.266;2023-02-28T10:41:17;5.70;99.90
17687;DHT22;8962;52.538;13.266;2023-02-28T10:44:13;5.80;99.90
17687;DHT22;8962;52.538;13.266;2023-02-28T10:46:42;5.70;99.90
17687;DHT22;8962;52.538;13.266;2023-02-28T10:49:14;5.60;99.90
17687;DHT22;8962;52.538;13.266;2023-02-28T10:51:44;5.60;99.90
17687;DHT22;8962;52.538;13.266;2023-02-28T10:54:20;5.60;99.90
17687;DHT22;8962;52.538;13.266;2023-02-28T10:57:07;5.70;99.90
17687;DHT22;8962;52.538;13.266;2023-02-28T10:59:35;5.60;99.90
17687;DHT22;8962;52.538;13.266;2023-02-28T11:02:07;5.60;99.90
17687;DHT22;8962;52.538;13.266;2023-02-28T11:04:53;5.50;99.90
17687;DHT22;8962;52.538;13.266;2023-02-28T11:07:23;5.50;99.90
17687;DHT22;8962;52.538;13.266;2023-02-28T11:09:56;5.50;99.90
17687;DHT22;8962;52.538;13.266;2023-02-28T11:12:28;5.60;99.90
17687;DHT22;8962;52.538;13.266;2023-02-28T11:14:58;5.70;99.90
17687;DHT22;8962;52.538;13.266;2023-02-28T11:17:27;5.90;99.90
17687;DHT22;8962;52.538;13.266;2023-02-28T11:19:58;5.90;99.90
17687;DHT22;8962;52.538;13.266;2023-02-28T11:22:30;6.00;99.90
17687;DHT22;8962;52.538;13.266;2023-02-28T11:25:08;6.10;99.90
17687;DHT22;8962;52.538;13.266;2023-02-28T11:27:47;6.10;99.90
17687;DHT22;8962;52.538;13.266;2023-02-28T11:30:29;6.30;99.90
17687;DHT22;8962;52.538;13.266;2023-02-28T11:32:58;7.10;99.90
17687;DHT22;8962;52.538;13.266;2023-02-28T11:35:29;8.20;99.90
17687;DHT22;8962;52.538;13.266;2023-02-28T11:37:57;9.00;98.70
17687;DHT22;8962;52.538;13.266;2023-02-28T11:40:31;9.60;96.60
17687;DHT22;8962;52.538;13.266;2023-02-28T11:43:12;10.90;88.20
17687;DHT22;8962;52.538;13.266;2023-02-28T11:45:58;11.70;88.20
17687;DHT22;8962;52.538;13.266;2023-02-28T11:48:33;12.60;69.80
17687;DHT22;8962;52.538;13.266;2023-02-28T11:51:13;12.20;64.60
17687;DHT22;8962;52.538;13.266;2023-02-28T11:53:58;12.40;69.20
17687;DHT22;8962;52.538;13.266;2023-02-28T11:56:32;12.70;64.50
17687;DHT22;8962;52.538;13.266;2023-02-28T12:02:08;13.50;61.80
17687;DHT22;8962;52.538;13.266;2023-02-28T12:04:52;13.40;56.60
17687;DHT22;8962;52.538;13.266;2023-02-28T12:07:25;12.70;57.00
17687;DHT22;8962;52.538;13.266;2023-02-28T12:10:02;13.00;60.90
17687;DHT22;8962;52.538;13.266;2023-02-28T12:12:41;12.80;62.40
17687;DHT22;8962;52.538;13.266;2023-02-28T12:15:36;13.10;58.40
17687;DHT22;8962;52.538;13.266;2023-02-28T12:18:25;13.50;60.80
17687;DHT22;8962;52.538;13.266;2023-02-28T12:20:59;14.00;54.20
17687;DHT22;8962;52.538;13.266;2023-02-28T12:23:52;14.70;51.80
17687;DHT22;8962;52.538;13.266;2023-02-28T12:26:31;14.40;51.00
17687;DHT22;8962;52.538;13.266;2023-02-28T12:29:04;14.00;50.40
17687;DHT22;8962;52.538;13.266;2023-02-28T12:31:36;14.10;51.00
17687;DHT22;8962;52.538;13.266;2023-02-28T12:34:09;14.40;52.20
17687;DHT22;8962;52.538;13.266;2023-02-28T12:36:41;14.50;49.20
17687;DHT22;8962;52.538;13.266;2023-02-28T12:39:16;14.40;52.30
17687;DHT22;8962;52.538;13.266;2023-02-28T12:41:47;15.30;50.80
17687;DHT22;8962;52.538;13.266;2023-02-28T12:44:20;16.10;45.70
17687;DHT22;8962;52.538;13.266;2023-02-28T12:46:51;16.10;44.10
17687;DHT22;8962;52.538;13.266;2023-02-28T12:49:25;15.80;44.10
17687;DHT22;8962;52.538;13.266;2023-02-28T12:51:56;15.90;44.30
17687;DHT22;8962;52.538;13.266;2023-02-28T12:54:29;16.30;43.40
17687;DHT22;8962;52.538;13.266;2023-02-28T12:57:07;15.80;44.00
17687;DHT22;8962;52.538;13.266;2023-02-28T12:59:42;15.80;44.90
17687;DHT22;8962;52.538;13.266;2023-02-28T13:02:41;15.60;46.10
17687;DHT22;8962;52.538;13.266;2023-02-28T13:05:27;15.90;44.70
17687;DHT22;8962;52.538;13.266;2023-02-28T13:08:10;16.10;43.30
17687;DHT22;8962;52.538;13.266;2023-02-28T13:10:45;17.10;41.90
17687;DHT22;8962;52.538;13.266;2023-02-28T13:13:17;17.60;41.30
17687;DHT22;8962;52.538;13.266;2023-02-28T13:16:03;15.80;43.10
17687;DHT22;8962;52.538;13.266;2023-02-28T13:18:33;14.70;44.60
17687;DHT22;8962;52.538;13.266;2023-02-28T13:21:06;15.30;44.80
17687;DHT22;8962;52.538;13.266;2023-02-28T13:23:41;16.00;45.10
17687;DHT22;8962;52.538;13.266;2023-02-28T13:26:22;16.00;42.20
17687;DHT22;8962;52.538;13.266;2023-02-28T13:32:20;17.30;40.70
17687;DHT22;8962;52.538;13.266;2023-02-28T13:35:37;17.90;40.30
17687;DHT22;8962;52.538;13.266;2023-02-28T13:38:32;17.00;41.20
17687;DHT22;8962;52.538;13.266;2023-02-28T13:44:06;17.20;39.30
17687;DHT22;8962;52.538;13.266;2023-02-28T13:49:25;16.20;39.30
17687;DHT22;8962;52.538;13.266;2023-02-28T13:51:56;16.10;40.60
17687;DHT22;8962;52.538;13.266;2023-02-28T13:54:37;16.60;40.00
17687;DHT22;8962;52.538;13.266;2023-02-28T13:57:20;17.20;39.40
17687;DHT22;8962;52.538;13.266;2023-02-28T14:00:07;17.20;40.80
17687;DHT22;8962;52.538;13.266;2023-02-28T14:03:06;17.70;39.00
17687;DHT22;8962;52.538;13.266;2023-02-28T14:05:37;17.00;41.00
17687;DHT22;8962;52.538;13.266;2023-02-28T14:08:07;17.60;38.80
17687;DHT22;8962;52.538;13.266;2023-02-28T14:10:42;16.90;38.10
17687;DHT22;8962;52.538;13.266;2023-02-28T14:13:42;16.00;40.10
17687;DHT22;8962;52.538;13.266;2023-02-28T14:16:14;16.80;40.30
17687;DHT22;8962;52.538;13.266;2023-02-28T14:18:48;16.50;38.60
17687;DHT22;8962;52.538;13.266;2023-02-28T14:21:21;16.20;40.60
17687;DHT22;8962;52.538;13.266;2023-02-28T14:27:16;14.40;40.80
17687;DHT22;8962;52.538;13.266;2023-02-28T14:30:19;12.40;44.70
17687;DHT22;8962;52.538;13.266;2023-02-28T14:33:00;10.80;50.60
17687;DHT22;8962;52.538;13.266;2023-02-28T14:35:49;9.80;54.30
17687;DHT22;8962;52.538;13.266;2023-02-28T14:38:24;8.60;56.00
17687;DHT22;8962;52.538;13.266;2023-02-28T14:40:55;8.30;57.80
17687;DHT22;8962;52.538;13.266;2023-02-28T14:43:31;8.00;63.90
17687;DHT22;8962;52.538;13.266;2023-02-28T14:46:00;7.60;71.60
17687;DHT22;8962;52.538;13.266;2023-02-28T14:48:28;7.40;76.80
17687;DHT22;8962;52.538;13.266;2023-02-28T14:50:57;7.20;83.30
17687;DHT22;8962;52.538;13.266;2023-02-28T14:53:29;7.00;82.70
17687;DHT22;8962;52.538;13.266;2023-02-28T14:55:57;6.80;81.20
17687;DHT22;8962;52.538;13.266;2023-02-28T14:58:27;6.70;84.70
17687;DHT22;8962;52.538;13.266;2023-02-28T15:00:56;6.50;89.10
17687;DHT22;8962;52.538;13.266;2023-02-28T15:03:30;6.40;88.00
17687;DHT22;8962;52.538;13.266;2023-02-28T15:05:58;6.30;87.20
17687;DHT22;8962;52.538;13.266;2023-02-28T15:08:29;6.20;89.30
17687;DHT22;8962;52.538;13.266;2023-02-28T15:11:03;6.30;92.90
17687;DHT22;8962;52.538;13.266;2023-02-28T15:13:36;6.20;92.20
17687;DHT22;8962;52.538;13.266;2023-02-28T15:16:05;6.20;91.00
17687;DHT22;8962;52.538;13.266;2023-02-28T15:18:43;6.20;93.60
17687;DHT22;8962;52.538;13.266;2023-02-28T15:21:17;6.20;94.60
17687;DHT22;8962;52.538;13.266;2023-02-28T15:23:49;6.10;94.00
17687;DHT22;8962;52.538;13.266;2023-02-28T15:26:24;6.00;92.60
17687;DHT22;8962;52.538;13.266;2023-02-28T15:28:58;5.90;94.30
17687;DHT22;8962;52.538;13.266;2023-02-28T15:31:28;5.90;93.50
17687;DHT22;8962;52.538;13.266;2023-02-28T15:33:57;5.80;94.30
17687;DHT22;8962;52.538;13.266;2023-02-28T15:36:26;5.90;96.20
17687;DHT22;8962;52.538;13.266;2023-02-28T15:38:56;5.80;96.80
17687;DHT22;8962;52.538;13.266;2023-02-28T15:41:28;5.80;95.80
17687;DHT22;8962;52.538;13.266;2023-02-28T15:44:24;5.80;99.00
17687;DHT22;8962;52.538;13.266;2023-02-28T15:46:59;5.80;97.50
17687;DHT22;8962;52.538;13.266;2023-02-28T15:49:39;5.90;99.70
17687;DHT22;8962;52.538;13.266;2023-02-28T15:52:13;5.70;95.70
17687;DHT22;8962;52.538;13.266;2023-02-28T15:54:44;5.50;96.10
17687;DHT22;8962;52.538;13.266;2023-02-28T15:57:17;5.40;96.40
17687;DHT22;8962;52.538;13.266;2023-02-28T15:59:50;5.30;96.90
17687;DHT22;8962;52.538;13.266;2023-02-28T16:02:20;5.30;98.60
17687;DHT22;8962;52.538;13.266;2023-02-28T16:04:58;5.20;97.80
17687;DHT22;8962;52.538;13.266;2023-02-28T16:07:27;5.30;99.90
17687;DHT22;8962;52.538;13.266;2023-02-28T16:09:56;5.10;98.80
17687;DHT22;8962;52.538;13.266;2023-02-28T16:12:27;5.10;99.40
17687;DHT22;8962;52.538;13.266;2023-02-28T16:14:55;5.10;99.80
17687;DHT22;8962;52.538;13.266;2023-02-28T16:17:25;5.00;99.90
17687;DHT22;8962;52.538;13.266;2023-02-28T16:19:53;5.10;99.90
17687;DHT22;8962;52.538;13.266;2023-02-28T16:22:21;4.90;99.90
17687;DHT22;8962;52.538;13.266;2023-02-28T16:24:48;4.80;99.90
17687;DHT22;8962;52.538;13.266;2023-02-28T16:27:21;4.80;99.90
17687;DHT22;8962;52.538;13.266;2023-02-28T16:29:56;4.70;99.90
17687;DHT22;8962;52.538;13.266;2023-02-28T16:32:23;4.60;99.90
17687;DHT22;8962;52.538;13.266;2023-02-28T16:34:51;4.50;99.90
17687;DHT22;8962;52.538;13.266;2023-02-28T16:37:18;4.40;99.90